createdAt,value
2022-10-06T00:01:18.469Z,89.97
2022-10-06T00:04:03.906Z,90.47
2022-10-06T00:06:49.527Z,90.55
2022-10-06T00:09:34.917Z,90.24
2022-10-06T00:12:20.518Z,90.55
2022-10-06T00:15:06.878Z,90.54
2022-10-06T00:17:52.768Z,90.58
2022-10-06T00:20:38.383Z,90.64
2022-10-06T00:23:24.658Z,90.86
2022-10-06T00:26:17.447Z,90.79
2022-10-06T00:29:03.603Z,90.97
2022-10-06T00:31:49.392Z,90.94
2022-10-06T00:34:36.611Z,91.14
2022-10-06T00:37:22.086Z,91.09
2022-10-06T00:40:09.870Z,91.26
2022-10-06T00:42:58.503Z,91.29
2022-10-06T00:45:46.438Z,91.30
2022-10-06T00:48:32.320Z,91.52
2022-10-06T00:51:18.601Z,91.79
2022-10-06T00:54:04.425Z,91.76
2022-10-06T00:56:50.634Z,92.03
2022-10-06T00:59:37.092Z,92.21
2022-10-06T01:02:29.472Z,92.30
2022-10-06T01:05:23.064Z,92.42
2022-10-06T01:08:09.001Z,92.15
2022-10-06T01:10:54.629Z,92.28
2022-10-06T01:13:43.386Z,92.47
2022-10-06T01:16:29.485Z,92.55
2022-10-06T01:19:26.576Z,92.81
2022-10-06T01:22:14.884Z,92.72
2022-10-06T01:25:00.882Z,92.87
2022-10-06T01:27:53.809Z,92.98
2022-10-06T01:30:52.631Z,92.98
2022-10-06T01:33:39.786Z,93.08
2022-10-06T01:36:25.522Z,93.12
2022-10-06T01:39:10.908Z,93.49
2022-10-06T01:41:57.310Z,93.45
2022-10-06T01:44:42.958Z,93.66
2022-10-06T01:47:29.076Z,93.79
2022-10-06T01:50:15.494Z,94.02
2022-10-06T01:53:01.888Z,94.04
2022-10-06T01:55:48.559Z,94.04
2022-10-06T01:58:39.075Z,94.21
2022-10-06T02:01:25.763Z,94.30
2022-10-06T02:04:13.069Z,94.33
2022-10-06T02:06:59.341Z,94.14
2022-10-06T02:09:45.482Z,94.35
2022-10-06T02:12:31.831Z,94.51
2022-10-06T02:15:20.608Z,94.47
2022-10-06T02:18:06.547Z,94.67
2022-10-06T02:20:52.190Z,94.34
2022-10-06T02:23:37.676Z,94.50
2022-10-06T02:26:23.408Z,94.46
2022-10-06T02:29:10.347Z,94.46
2022-10-06T02:31:56.009Z,94.27
2022-10-06T02:34:42.476Z,94.58
2022-10-06T02:37:28.471Z,94.40
2022-10-06T02:40:16.327Z,94.47
2022-10-06T02:43:04.393Z,94.47
2022-10-06T02:45:55.945Z,94.52
2022-10-06T02:48:43.108Z,94.42
2022-10-06T02:51:32.785Z,94.71
2022-10-06T02:54:19.654Z,94.74
2022-10-06T02:57:05.458Z,94.70
2022-10-06T02:59:51.792Z,94.73
2022-10-06T03:02:38.488Z,94.84
2022-10-06T03:05:24.261Z,94.67
2022-10-06T03:08:11.214Z,94.93
2022-10-06T03:11:04.887Z,95.20
2022-10-06T03:13:51.539Z,95.13
2022-10-06T03:16:39.566Z,95.23
2022-10-06T03:19:29.234Z,95.35
2022-10-06T03:22:14.949Z,95.38
2022-10-06T03:25:10.817Z,95.39
2022-10-06T03:27:56.722Z,95.77
2022-10-06T03:30:42.331Z,95.73
2022-10-06T03:33:29.268Z,96.06
2022-10-06T03:36:18.357Z,96.15
2022-10-06T03:39:04.941Z,96.15
2022-10-06T03:41:51.959Z,96.23
2022-10-06T03:44:38.181Z,96.49
2022-10-06T03:47:24.166Z,96.69
2022-10-06T03:50:10.060Z,96.66
2022-10-06T03:52:56.012Z,96.96
2022-10-06T03:55:41.796Z,96.93
2022-10-06T03:58:28.997Z,97.13
2022-10-06T04:01:29.103Z,97.02
2022-10-06T04:04:15.504Z,97.07
2022-10-06T04:07:03.742Z,97.04
2022-10-06T04:09:49.630Z,96.92
2022-10-06T04:12:36.609Z,96.70
2022-10-06T04:15:22.251Z,96.43
2022-10-06T04:18:07.961Z,96.38
2022-10-06T04:20:59.884Z,96.17
2022-10-06T04:23:45.866Z,96.12
2022-10-06T04:26:36.012Z,96.25
2022-10-06T04:29:21.893Z,96.11
2022-10-06T04:32:12.299Z,96.03
2022-10-06T04:34:58.388Z,95.98
2022-10-06T04:37:46.971Z,95.92
2022-10-06T04:40:33.333Z,95.84
2022-10-06T04:43:19.510Z,95.70
2022-10-06T04:46:23.901Z,95.80
2022-10-06T04:49:17.918Z,95.80
2022-10-06T04:52:06.469Z,95.77
2022-10-06T04:54:55.591Z,95.78
2022-10-06T04:57:42.029Z,95.61
2022-10-06T05:00:27.973Z,95.82
2022-10-06T05:03:15.362Z,95.67
2022-10-06T05:06:07.383Z,95.73
2022-10-06T05:08:55.302Z,95.68
2022-10-06T05:11:41.271Z,95.58
2022-10-06T05:14:29.892Z,95.69
2022-10-06T05:17:15.348Z,95.65
2022-10-06T05:20:01.750Z,95.59
2022-10-06T05:22:47.183Z,95.58
2022-10-06T05:25:32.810Z,95.48
2022-10-06T05:28:18.710Z,95.63
2022-10-06T05:31:11.917Z,95.55
2022-10-06T05:33:58.803Z,95.74
2022-10-06T05:36:46.228Z,95.98
2022-10-06T05:39:31.883Z,96.11
2022-10-06T05:42:17.901Z,96.22
2022-10-06T05:45:03.304Z,96.19
2022-10-06T05:47:49.450Z,96.32
2022-10-06T05:50:34.963Z,96.43
2022-10-06T05:53:21.583Z,96.39
2022-10-06T05:56:12.649Z,96.44
2022-10-06T05:58:59.970Z,96.44
2022-10-06T06:01:47.137Z,96.42
2022-10-06T06:04:50.637Z,96.43
2022-10-06T06:07:37.084Z,96.66
2022-10-06T06:10:22.731Z,96.81
2022-10-06T06:13:09.112Z,96.69
2022-10-06T06:16:06.000Z,96.60
2022-10-06T06:18:52.921Z,96.73
2022-10-06T06:21:39.068Z,96.73
2022-10-06T06:24:25.038Z,96.53
2022-10-06T06:27:10.887Z,96.03
2022-10-06T06:29:58.289Z,96.04
2022-10-06T06:32:45.230Z,95.66
2022-10-06T06:35:30.700Z,95.16
2022-10-06T06:38:18.281Z,94.76
2022-10-06T06:41:04.171Z,94.25
2022-10-06T06:43:50.465Z,93.59
2022-10-06T06:46:45.859Z,93.07
2022-10-06T06:49:35.038Z,93.29
2022-10-06T06:52:26.006Z,92.69
2022-10-06T06:55:11.923Z,91.10
2022-10-06T06:57:57.479Z,91.15
2022-10-06T07:00:43.927Z,90.36
2022-10-06T07:03:55.975Z,90.29
2022-10-06T07:06:38.057Z,89.96
2022-10-06T07:09:27.060Z,90.00
2022-10-06T07:12:19.405Z,90.28
2022-10-06T07:15:29.142Z,90.01
2022-10-06T07:18:33.879Z,90.43
2022-10-06T07:21:38.533Z,90.48
2022-10-06T07:24:43.454Z,90.23
2022-10-06T07:27:30.273Z,90.44
2022-10-06T07:30:19.645Z,90.56
2022-10-06T07:33:09.899Z,90.75
2022-10-06T07:35:57.119Z,90.73
2022-10-06T07:38:42.740Z,91.01
2022-10-06T07:41:29.548Z,91.27
2022-10-06T07:44:18.473Z,91.18
2022-10-06T07:47:06.728Z,91.75
2022-10-06T07:50:12.999Z,91.57
2022-10-06T07:53:09.161Z,91.68
2022-10-06T07:56:07.355Z,91.93
2022-10-06T07:58:58.843Z,92.01
2022-10-06T08:01:45.802Z,91.90
2022-10-06T08:04:31.869Z,92.14
2022-10-06T08:07:17.216Z,92.00
2022-10-06T08:10:03.419Z,91.85
2022-10-06T08:12:49.094Z,92.30
2022-10-06T08:15:35.082Z,91.93
2022-10-06T08:18:44.223Z,91.68
2022-10-06T08:21:29.114Z,91.64
2022-10-06T08:24:14.905Z,91.44
2022-10-06T08:27:00.768Z,91.46
2022-10-06T08:29:46.129Z,91.16
2022-10-06T08:32:32.892Z,91.23
2022-10-06T08:35:18.245Z,90.83
2022-10-06T08:38:04.227Z,90.36
2022-10-06T08:40:49.683Z,89.83
2022-10-06T08:43:35.326Z,90.06
2022-10-06T08:46:24.732Z,89.30
2022-10-06T08:49:17.491Z,88.92
2022-10-06T08:52:21.967Z,88.10
2022-10-06T08:55:24.510Z,87.24
2022-10-06T08:58:33.389Z,87.36
2022-10-06T09:01:25.423Z,86.80
2022-10-06T09:04:23.046Z,85.55
2022-10-06T09:07:18.326Z,84.87
2022-10-06T09:10:32.603Z,84.39
2022-10-06T09:13:22.397Z,83.58
2022-10-06T09:16:12.515Z,83.13
2022-10-06T09:19:20.572Z,83.01
2022-10-06T09:22:06.886Z,82.87
2022-10-06T09:24:56.553Z,81.91
2022-10-06T09:27:43.689Z,82.32
2022-10-06T09:30:29.654Z,81.85
2022-10-06T09:33:21.066Z,80.85
2022-10-06T09:36:10.691Z,80.11
2022-10-06T09:38:58.156Z,79.95
2022-10-06T09:41:45.755Z,77.00
2022-10-06T09:44:40.921Z,77.64
2022-10-06T09:47:32.469Z,76.58
2022-10-06T09:50:28.228Z,75.53
2022-10-06T09:53:16.220Z,75.97
2022-10-06T09:56:05.071Z,74.91
2022-10-06T09:58:56.348Z,74.40
2022-10-06T10:01:42.329Z,73.37
2022-10-06T10:04:33.340Z,72.30
2022-10-06T10:07:27.489Z,71.88
2022-10-06T10:10:25.840Z,72.44
2022-10-06T10:13:22.496Z,72.45
2022-10-06T10:16:10.585Z,71.71
2022-10-06T10:18:57.058Z,71.54
2022-10-06T10:21:44.616Z,71.09
2022-10-06T10:24:47.582Z,70.34
2022-10-06T10:28:03.826Z,70.71
2022-10-06T10:31:21.177Z,70.42
2022-10-06T10:34:44.725Z,70.16
2022-10-06T10:37:46.378Z,70.56
2022-10-06T10:40:43.073Z,70.55
2022-10-06T10:43:34.323Z,68.64
2022-10-06T10:46:43.442Z,69.17
2022-10-06T10:49:32.110Z,68.76
2022-10-06T10:52:21.567Z,68.93
2022-10-06T10:55:27.984Z,67.53
2022-10-06T10:58:19.557Z,67.08
2022-10-06T11:01:15.781Z,66.49
2022-10-06T11:04:02.437Z,66.54
2022-10-06T11:07:23.402Z,65.50
2022-10-06T11:10:21.243Z,64.90
2022-10-06T11:13:24.920Z,64.89
2022-10-06T11:16:18.790Z,64.50
2022-10-06T11:19:18.104Z,64.86
2022-10-06T11:22:12.137Z,64.79
2022-10-06T11:25:13.660Z,65.07
2022-10-06T11:28:14.879Z,63.95
2022-10-06T11:31:30.329Z,63.61
2022-10-06T11:34:16.158Z,63.47
2022-10-06T11:37:26.155Z,62.47
2022-10-06T11:40:38.598Z,62.77
2022-10-06T11:43:45.055Z,62.49
2022-10-06T11:46:41.272Z,61.63
2022-10-06T11:49:28.341Z,61.44
2022-10-06T11:52:14.091Z,59.98
2022-10-06T11:55:18.465Z,60.42
2022-10-06T11:58:37.426Z,59.91
2022-10-06T12:01:44.694Z,59.51
2022-10-06T12:04:30.486Z,60.33
2022-10-06T12:07:15.885Z,59.80
2022-10-06T12:10:28.001Z,58.72
2022-10-06T12:13:39.956Z,59.23
2022-10-06T12:19:41.465Z,57.60
2022-10-06T12:22:39.833Z,57.56
2022-10-06T12:25:35.108Z,57.98
2022-10-06T12:28:44.690Z,57.88
2022-10-06T12:32:13.061Z,57.31
2022-10-06T12:35:15.340Z,57.13
2022-10-06T12:38:06.062Z,56.86
2022-10-06T12:40:55.457Z,57.11
2022-10-06T12:43:52.422Z,56.67
2022-10-06T12:46:43.798Z,56.64
2022-10-06T12:49:46.365Z,56.80
2022-10-06T12:52:51.624Z,56.97
2022-10-06T12:55:49.163Z,56.71
2022-10-06T12:58:34.625Z,56.59
2022-10-06T13:01:22.046Z,56.66
2022-10-06T13:04:30.063Z,56.90
2022-10-06T13:07:18.824Z,57.13
2022-10-06T13:10:13.589Z,56.66
2022-10-06T13:13:00.006Z,57.24
2022-10-06T13:15:45.936Z,57.39
2022-10-06T13:18:32.862Z,57.58
2022-10-06T13:21:18.436Z,57.27
2022-10-06T13:24:04.037Z,57.27
2022-10-06T13:26:50.317Z,57.45
2022-10-06T13:29:35.725Z,57.04
2022-10-06T13:32:21.680Z,57.15
2022-10-06T13:35:11.726Z,57.24
2022-10-06T13:38:01.295Z,57.13
2022-10-06T13:41:11.395Z,56.36
2022-10-06T13:43:57.300Z,57.56
2022-10-06T13:46:45.995Z,56.76
2022-10-06T13:49:35.512Z,57.03
2022-10-06T13:52:34.295Z,56.22
2022-10-06T13:55:24.240Z,56.90
2022-10-06T13:58:15.682Z,57.02
2022-10-06T14:01:02.052Z,57.17
2022-10-06T14:03:48.113Z,57.42
2022-10-06T14:06:33.894Z,57.18
2022-10-06T14:09:25.708Z,57.47
2022-10-06T14:12:15.310Z,57.40
2022-10-06T14:15:03.033Z,57.44
2022-10-06T14:17:57.245Z,57.38
2022-10-06T14:20:45.913Z,57.58
2022-10-06T14:23:40.034Z,57.61
2022-10-06T14:26:28.709Z,57.71
2022-10-06T14:29:14.572Z,56.87
2022-10-06T14:32:13.162Z,57.20
2022-10-06T14:34:58.910Z,57.42
2022-10-06T14:37:44.270Z,57.10
2022-10-06T14:40:30.081Z,57.43
2022-10-06T14:43:15.464Z,57.18
2022-10-06T14:46:04.024Z,57.47
2022-10-06T14:48:52.123Z,57.29
2022-10-06T14:51:39.082Z,57.44
2022-10-06T14:54:25.236Z,57.34
2022-10-06T14:57:10.796Z,57.37
2022-10-06T14:59:56.418Z,57.56
2022-10-06T15:02:42.608Z,56.98
2022-10-06T15:05:28.471Z,57.33
2022-10-06T15:08:13.990Z,57.17
2022-10-06T15:10:59.748Z,57.53
2022-10-06T15:13:46.168Z,57.67
2022-10-06T15:16:33.231Z,57.93
2022-10-06T15:19:18.926Z,58.08
2022-10-06T15:22:06.272Z,58.33
2022-10-06T15:24:51.890Z,58.72
2022-10-06T15:27:56.527Z,58.66
2022-10-06T15:30:42.544Z,59.18
2022-10-06T15:33:30.483Z,59.04
2022-10-06T15:36:18.440Z,59.41
2022-10-06T15:39:06.946Z,59.32
2022-10-06T15:41:52.852Z,59.74
2022-10-06T15:44:38.493Z,59.84
2022-10-06T15:47:24.815Z,60.11
2022-10-06T15:50:11.392Z,60.49
2022-10-06T15:52:59.819Z,60.95
2022-10-06T15:55:46.066Z,60.90
2022-10-06T15:58:31.869Z,61.00
2022-10-06T16:01:35.925Z,61.31
2022-10-06T16:04:43.513Z,61.83
2022-10-06T16:07:31.493Z,61.78
2022-10-06T16:10:17.413Z,62.30
2022-10-06T16:13:02.766Z,62.64
2022-10-06T16:15:55.721Z,62.65
2022-10-06T16:18:41.409Z,63.16
2022-10-06T16:21:27.264Z,63.25
2022-10-06T16:24:12.794Z,63.69
2022-10-06T16:26:59.975Z,63.77
2022-10-06T16:29:45.528Z,63.87
2022-10-06T16:32:31.103Z,64.46
2022-10-06T16:35:18.508Z,64.59
2022-10-06T16:38:04.193Z,65.11
2022-10-06T16:41:01.536Z,65.38
2022-10-06T16:43:48.767Z,65.44
2022-10-06T16:46:34.733Z,65.91
2022-10-06T16:49:21.135Z,65.97
2022-10-06T16:52:06.760Z,66.43
2022-10-06T16:54:52.702Z,66.48
2022-10-06T16:57:37.965Z,67.11
2022-10-06T17:00:24.066Z,66.97
2022-10-06T17:03:09.853Z,67.39
2022-10-06T17:05:55.445Z,67.63
2022-10-06T17:08:42.055Z,68.11
2022-10-06T17:11:27.935Z,68.73
2022-10-06T17:14:13.589Z,69.18
2022-10-06T17:16:59.644Z,69.12
2022-10-06T17:19:45.015Z,69.50
2022-10-06T17:22:31.635Z,70.14
2022-10-06T17:25:17.161Z,70.29
2022-10-06T17:28:03.064Z,70.69
2022-10-06T17:30:52.528Z,70.70
2022-10-06T17:33:39.970Z,70.88
2022-10-06T17:36:26.217Z,71.32
2022-10-06T17:39:13.730Z,71.99
2022-10-06T17:41:59.845Z,71.98
2022-10-06T17:44:45.544Z,72.47
2022-10-06T17:47:30.901Z,72.66
2022-10-06T17:50:17.117Z,72.80
2022-10-06T17:53:02.777Z,72.92
2022-10-06T17:55:49.394Z,73.24
2022-10-06T17:58:37.980Z,73.50
2022-10-06T18:01:26.099Z,73.77
2022-10-06T18:04:15.520Z,73.82
2022-10-06T18:07:03.372Z,74.32
2022-10-06T18:10:09.418Z,74.36
2022-10-06T18:12:54.982Z,74.69
2022-10-06T18:15:40.626Z,75.03
2022-10-06T18:18:26.879Z,75.17
2022-10-06T18:21:13.036Z,75.44
2022-10-06T18:23:58.845Z,75.83
2022-10-06T18:26:48.122Z,75.99
2022-10-06T18:29:36.413Z,76.11
2022-10-06T18:38:38.885Z,77.14
2022-10-06T18:41:27.938Z,77.16
2022-10-06T18:44:13.363Z,77.22
2022-10-06T18:47:18.944Z,77.44
2022-10-06T18:50:04.989Z,77.86
2022-10-06T18:52:51.102Z,77.70
2022-10-06T18:55:36.546Z,78.05
2022-10-06T18:58:22.600Z,78.29
2022-10-06T19:01:08.500Z,78.30
2022-10-06T19:03:56.290Z,78.35
2022-10-06T19:06:45.237Z,78.55
2022-10-06T19:09:30.948Z,78.85
2022-10-06T19:12:16.539Z,78.71
2022-10-06T19:15:02.663Z,78.96
2022-10-06T19:17:49.486Z,79.09
2022-10-06T19:20:35.222Z,79.63
2022-10-06T19:23:20.866Z,79.30
2022-10-06T19:26:08.949Z,79.42
2022-10-06T19:28:54.705Z,79.67
2022-10-06T19:31:43.251Z,79.83
2022-10-06T19:34:29.085Z,79.96
2022-10-06T19:37:15.748Z,80.10
2022-10-06T19:40:01.713Z,80.17
2022-10-06T19:42:47.455Z,80.35
2022-10-06T19:45:33.263Z,80.30
2022-10-06T19:48:20.063Z,80.69
2022-10-06T19:51:16.527Z,80.92
2022-10-06T19:54:03.959Z,81.19
2022-10-06T19:56:49.669Z,81.22
2022-10-06T19:59:36.662Z,81.38
2022-10-06T20:02:23.393Z,81.51
2022-10-06T20:05:10.464Z,81.51
2022-10-06T20:07:56.123Z,81.68
2022-10-06T20:10:41.692Z,81.74
2022-10-06T20:13:27.295Z,81.53
2022-10-06T20:16:17.359Z,81.91
2022-10-06T20:19:03.129Z,81.79
2022-10-06T20:21:48.936Z,81.98
2022-10-06T20:24:35.242Z,81.79
2022-10-06T20:27:21.576Z,82.13
2022-10-06T20:30:08.057Z,81.88
2022-10-06T20:32:54.427Z,82.35
2022-10-06T20:35:40.045Z,82.40
2022-10-06T20:38:45.759Z,82.44
2022-10-06T20:41:32.248Z,82.18
2022-10-06T20:44:18.443Z,82.48
2022-10-06T20:47:04.819Z,82.67
2022-10-06T20:49:55.073Z,82.51
2022-10-06T20:52:40.825Z,82.67
2022-10-06T20:55:26.496Z,82.78
2022-10-06T20:58:12.014Z,82.71
2022-10-06T21:01:06.983Z,83.03
2022-10-06T21:03:54.832Z,83.09
2022-10-06T21:06:41.000Z,83.41
2022-10-06T21:09:28.540Z,83.33
2022-10-06T21:12:16.103Z,83.56
2022-10-06T21:15:01.823Z,83.32
2022-10-06T21:17:48.425Z,83.57
2022-10-06T21:20:34.669Z,83.72
2022-10-06T21:23:20.569Z,84.11
2022-10-06T21:26:07.714Z,83.90
2022-10-06T21:28:54.560Z,83.82
2022-10-06T21:31:41.853Z,83.83
2022-10-06T21:34:27.460Z,83.93
2022-10-06T21:37:13.638Z,84.00
2022-10-06T21:40:02.294Z,84.12
2022-10-06T21:42:48.855Z,84.00
2022-10-06T21:45:34.591Z,84.25
2022-10-06T21:48:20.598Z,84.01
2022-10-06T21:51:06.281Z,84.01
2022-10-06T21:53:52.533Z,84.18
2022-10-06T21:56:39.349Z,84.31
2022-10-06T21:59:25.103Z,84.35
2022-10-06T22:02:10.714Z,84.38
2022-10-06T22:04:56.459Z,84.52
2022-10-06T22:07:42.826Z,84.51
2022-10-06T22:10:28.592Z,84.60
2022-10-06T22:13:14.577Z,84.54
2022-10-06T22:16:04.260Z,84.27
2022-10-06T22:18:50.569Z,85.15
2022-10-06T22:21:38.307Z,84.76
2022-10-06T22:24:23.893Z,85.13
2022-10-06T22:27:09.499Z,85.06
2022-10-06T22:29:55.888Z,85.00
2022-10-06T22:32:41.338Z,84.90
2022-10-06T22:35:27.131Z,85.14
2022-10-06T22:38:12.408Z,85.66
2022-10-06T22:41:02.248Z,85.28
2022-10-06T22:43:48.660Z,85.29
2022-10-06T22:46:35.711Z,85.33
2022-10-06T22:49:21.444Z,85.43
2022-10-06T22:52:07.448Z,85.40
2022-10-06T22:54:52.965Z,85.43
2022-10-06T22:57:38.884Z,85.35
2022-10-06T23:00:24.532Z,85.05
2022-10-06T23:03:11.584Z,85.40
2022-10-06T23:05:59.889Z,85.56
2022-10-06T23:08:45.740Z,86.15
2022-10-06T23:11:31.292Z,85.47
2022-10-06T23:14:17.001Z,85.73
2022-10-06T23:17:02.420Z,86.06
2022-10-06T23:19:48.117Z,86.43
2022-10-06T23:22:33.646Z,86.16
2022-10-06T23:25:22.582Z,86.26
2022-10-06T23:28:10.476Z,86.19
2022-10-06T23:30:56.716Z,86.60
2022-10-06T23:33:42.885Z,86.30
2022-10-06T23:36:28.547Z,86.40
2022-10-06T23:39:14.095Z,86.27
2022-10-06T23:42:00.749Z,86.45
2022-10-06T23:44:46.154Z,86.44
2022-10-06T23:47:31.680Z,86.38
2022-10-06T23:50:17.147Z,87.00
2022-10-06T23:53:03.074Z,86.45
2022-10-06T23:55:48.542Z,86.82
2022-10-06T23:58:34.610Z,86.74
